Accueil
METAR-TAF:

METAR-TAF

Aéroports :

Aéroport de Southampton

Southampton, Angleterre

latitude: 50-54N, longitude: 001-24W, altitude: 9 m

Observation

Le bulletin a été fait il y a 31 minutes, à 14:20 UTC
Vent 4 kt de sud, variant entre sud-est et sud-ouest
Température 13°C
Humidité 67%
Pression 1014 hPa
Visibilité 10 km ou plus
Quelques nuages à une hauteur de 1700 ft

METAR: EGHI 241420Z 19004KT 130V230 9999 FEW017 13/07 Q1014

Heure: 14:51 (14:51 UTC)

Prévision

Le bulletin a été fait il y a 52 minutes, à 13:59 UTC
Prévision valable du 24 à 15 UTC au 24 à 23 UTC
Vent 5 kt de sud
Visibilité 10 km ou plus
Nuages épars à une hauteur de 2000 ft
Probabilité 30% :
Temporairement
du 24 à 15 UTC au 24 à 23 UTC
Nuages fragmentés à une hauteur de 1400 ft

TAF: EGHI 241359Z 2415/2423 19005KT 9999 SCT020 PROB30 TEMPO 2415/2423 BKN014

Observations et prévisions météorologiques de plus de 4000 aéroports (messages METAR et TAF).

Les stations disponibles sont représentées par des disques jaunes et rouges sur la carte.

Passer la souris dessus pour voir le nom de la station.

Cliquer dessus pour voir les observations et prévisions météorologiques.

Pour changer de carte: cliquez sur les boutons verts avec une croix noire pour zoomer, sur le bouton vert avec un tiret pour effectuer un zoom arrière, ou sur les flèches vertes pour les cartes adjacentes.


METAR-TAF: